Yuho Maru No.8 — JD3870 — position and weather

sailwx.info

Track history (hours):
 
Tides and Currents Weather Stations Pressure Air Temp Water Temp Dewpoint Dewpoint Depression Visibility Wind Speed Wind Dir Waves Ship Positions

Yuho Maru No.8

Last reported at 2018-Feb-24 07:30 UTC. Time now 2018-Feb-24 07:49 UTC.
Position N 35°23' E 139°42'.

Length 61 m; draft 4.4 m.

Type: Ship. MMSI: 431006905.

Date/timePositionNaut miles runAvg speedWind from/ knotsBaromVisibWave heightAir tempDewpointWater temp
2018-Feb-24 07:30N 35°23' E 139°42'611.2
2018-Feb-24 07:01N 35°27' E 139°47'611.0
2018-Feb-24 06:30N 35°30' E 139°53'2 4.5
2018-Feb-24 06:00N 35°29' E 139°56'2 3.8
2018-Feb-24 05:30N 35°30' E 139°58'3 6.6
2018-Feb-24 05:00N 35°30' E 140°02'0 0.0
2018-Feb-24 04:28N 35°30' E 140°02'0 0.0
2018-Feb-24 00:23N 35°30' E 140°02'2 1.7
2018-Feb-23 23:29N 35°31' E 140°00'4 8.8
2018-Feb-23 23:01N 35°35' E 139°60'610.5
2018-Feb-23 22:27N 35°41' E 139°59'0 0.0
2018-Feb-22 23:37N 35°41' E 139°59'0 0.1
2018-Feb-22 23:30N 35°41' E 139°59'1 1.1
2018-Feb-22 22:47N 35°40' E 139°59'310.2
2018-Feb-22 22:30N 35°37' E 139°59'4 7.4
2018-Feb-22 22:00N 35°36' E 139°55'0 0.0
2018-Feb-22 21:28N 35°36' E 139°55'0 0.0
2018-Feb-22 20:40N 35°36' E 139°55'0 0.0
2018-Feb-22 20:19N 35°36' E 139°55'0 0.0
2018-Feb-22 19:52N 35°36' E 139°55'0 0.0
2018-Feb-22 19:22N 35°36' E 139°55'0 0.0
2018-Feb-22 18:52N 35°36' E 139°55'0 0.0
2018-Feb-22 18:28N 35°36' E 139°55'0 0.0
2018-Feb-22 17:40N 35°36' E 139°55'0 0.0
2018-Feb-22 17:10N 35°36' E 139°55'0 0.0
2018-Feb-22 15:10N 35°36' E 139°55'0 0.0
2018-Feb-22 14:58N 35°36' E 139°55'0 0.0
2018-Feb-22 14:28N 35°36' E 139°55'0 0.0
2018-Feb-22 13:58N 35°36' E 139°55'0 0.0
2018-Feb-22 12:52N 35°36' E 139°55'0 0.0
2018-Feb-22 12:28N 35°36' E 139°55'0 0.0
2018-Feb-22 11:58N 35°36' E 139°55'0 0.0
2018-Feb-22 10:52N 35°36' E 139°55'0 0.0
2018-Feb-22 09:10N 35°36' E 139°55'0 0.2
2018-Feb-22 08:58N 35°36' E 139°55'0 0.1
2018-Feb-22 08:13N 35°36' E 139°55'2 7.1
2018-Feb-22 08:00N 35°35' E 139°56'612.3
2018-Feb-22 07:30N 35°32' E 140°03'1 0.2
2018-Feb-22 03:38N 35°32' E 140°04'0 0.1
2018-Feb-22 03:30N 35°32' E 140°04'3 6.5
2018-Feb-22 03:00N 35°34' E 140°01'612.1
2018-Feb-22 02:31N 35°40' E 139°58'1 0.5
2018-Feb-21 23:53N 35°40' E 139°56'2 4.3
2018-Feb-21 23:30N 35°39' E 139°58'4 8.7
2018-Feb-21 22:59N 35°36' E 139°55'0 0.3
2018-Feb-21 22:24N 35°36' E 139°54'0 0.0
2018-Feb-21 21:54N 35°36' E 139°54'0 0.0
2018-Feb-21 21:30N 35°36' E 139°54'1 1.6
2018-Feb-21 20:58N 35°35' E 139°54'611.6
2018-Feb-21 20:29N 35°30' E 139°52'511.3
2018-Feb-21 20:01N 35°25' E 139°48'611.2
2018-Feb-21 19:30N 35°20' E 139°45'510.7
2018-Feb-21 19:00N 35°15' E 139°47'611.3
2018-Feb-21 18:30N 35°10' E 139°47'611.2
2018-Feb-21 18:00N 35°04' E 139°45'712.0
2018-Feb-21 17:26N 35°00' E 139°39'511.2
2018-Feb-21 17:00N 34°58' E 139°34'1111.2
2018-Feb-21 16:01N 34°51' E 139°23'211.3
2018-Feb-21 15:51N 34°50' E 139°21'411.6
2018-Feb-21 15:29N 34°48' E 139°17'612.0
2018-Feb-21 14:58N 34°44' E 139°11'511.0
2018-Feb-21 14:28N 34°40' E 139°06'611.2
2018-Feb-21 13:58N 34°37' E 138°60'711.5
2018-Feb-21 13:22N 34°35' E 138°52'511.7
2018-Feb-21 12:58N 34°34' E 138°47'612.0
2018-Feb-21 12:27N 34°32' E 138°39'612.0
2018-Feb-21 11:56N 34°31' E 138°32'1412.1
2018-Feb-21 10:48N 34°30' E 138°15'7511.4
2018-Feb-21 04:11N 34°47' E 136°46'212.1
2018-Feb-21 04:01N 34°49' E 136°45'612.1
2018-Feb-21 03:30N 34°55' E 136°42'5 1.3
2018-Feb-20 23:56N 34°59' E 136°39'1 2.9
2018-Feb-20 23:30N 34°58' E 136°40'0 0.5
2018-Feb-20 22:58N 34°57' E 136°40'0 0.1
2018-Feb-20 22:28N 34°58' E 136°40'0 0.0
2018-Feb-20 21:55N 34°58' E 136°40'0 0.0
2018-Feb-20 21:28N 34°58' E 136°40'0 0.0
2018-Feb-20 20:58N 34°58' E 136°40'0 0.0
2018-Feb-20 20:28N 34°58' E 136°40'0 0.0
2018-Feb-20 19:55N 34°58' E 136°40'0 0.0
2018-Feb-20 19:28N 34°58' E 136°40'0 0.0
2018-Feb-20 18:58N 34°58' E 136°40'0 0.0
2018-Feb-20 18:22N 34°58' E 136°40'0 0.0
2018-Feb-20 17:55N 34°58' E 136°40'0 0.0
2018-Feb-20 17:28N 34°58' E 136°40'0 0.0
2018-Feb-20 16:55N 34°58' E 136°40'0 0.0
2018-Feb-20 16:28N 34°58' E 136°40'0 0.0
2018-Feb-20 15:58N 34°57' E 136°40'0 0.0
2018-Feb-20 15:28N 34°57' E 136°40'0 0.0
2018-Feb-20 14:55N 34°57' E 136°40'0 0.1
2018-Feb-20 14:28N 34°57' E 136°40'0 0.0
2018-Feb-20 13:55N 34°57' E 136°40'0 0.0
2018-Feb-20 13:19N 34°57' E 136°40'0 0.0
2018-Feb-20 12:58N 34°57' E 136°40'1 2.8
2018-Feb-20 12:30N 34°56' E 136°41'611.5
2018-Feb-20 12:01N 34°51' E 136°43'611.3
2018-Feb-20 11:30N 34°46' E 136°47'102 7.3
2018-Feb-19 21:36N 33°53' E 135°01'111.6
2018-Feb-19 21:31N 33°54' E 135°00'611.7
2018-Feb-19 21:01N 33°58' E 134°56'611.7
2018-Feb-19 20:30N 34°03' E 134°51'612.0
2018-Feb-19 20:00N 34°07' E 134°47'612.5
2018-Feb-19 19:30N 34°12' E 134°41'612.6
2018-Feb-19 19:00N 34°16' E 134°36'612.3
2018-Feb-19 18:30N 34°19' E 134°29'612.2
2018-Feb-19 18:00N 34°21' E 134°22'7910.9
2018-Feb-19 10:45N 34°04' E 132°49'511.8
2018-Feb-19 10:20N 34°00' E 132°45'411.3
2018-Feb-19 10:00N 33°57' E 132°43'510.7
2018-Feb-19 09:30N 33°54' E 132°38'611.2
2018-Feb-19 09:00N 33°50' E 132°33'610.9
2018-Feb-19 08:24N 33°46' E 132°27'410.9
2018-Feb-19 08:00N 33°43' E 132°23'510.7
2018-Feb-19 07:30N 33°40' E 132°18'1110.8
2018-Feb-19 06:30N 33°33' E 132°07'610.5
2018-Feb-19 05:55N 33°30' E 132°02'610.5
2018-Feb-19 05:19N 33°26' E 131°55'311.1
2018-Feb-19 05:00N 33°24' E 131°52'611.9
2018-Feb-19 04:30N 33°21' E 131°46'612.0
2018-Feb-19 03:59N 33°17' E 131°40'1 0.1
2018-Feb-18 03:52N 33°16' E 131°40'1 1.7
2018-Feb-18 03:30N 33°16' E 131°40'1 2.5
2018-Feb-18 03:00N 33°18' E 131°40'2 0.5
2018-Feb-17 23:35N 33°16' E 131°41'0 0.8
2018-Feb-17 23:31N 33°16' E 131°41'4 8.3
2018-Feb-17 23:00N 33°20' E 131°44'611.5
2018-Feb-17 22:30N 33°23' E 131°49'611.0
2018-Feb-17 22:00N 33°26' E 131°55'510.5
2018-Feb-17 21:30N 33°29' E 131°60'2011.5
2018-Feb-17 19:47N 33°41' E 132°19'412.5
2018-Feb-17 19:28N 33°43' E 132°22'813.0
2018-Feb-17 18:51N 33°49' E 132°30'513.1
2018-Feb-17 18:29N 33°52' E 132°34'613.5
2018-Feb-17 18:00N 33°56' E 132°40'10311.1
2018-Feb-17 08:42N 34°43' E 134°32'210.5
2018-Feb-17 08:30N 34°43' E 134°34'5 9.6
2018-Feb-17 08:00N 34°47' E 134°38'1 0.1
2018-Feb-16 23:04N 34°47' E 134°38'0 0.1
2018-Feb-16 23:00N 34°47' E 134°38'0 0.1
2018-Feb-16 22:30N 34°47' E 134°38'3 6.3
2018-Feb-16 22:00N 34°44' E 134°38'0 0.4
2018-Feb-16 21:26N 34°44' E 134°38'0 0.0
2018-Feb-16 20:56N 34°44' E 134°38'0 0.0
2018-Feb-16 20:26N 34°44' E 134°38'0 0.0
2018-Feb-16 19:56N 34°44' E 134°38'0 0.0
2018-Feb-16 19:26N 34°44' E 134°38'0 0.0
2018-Feb-16 18:56N 34°44' E 134°38'0 0.0
2018-Feb-16 18:26N 34°44' E 134°38'0 0.0
2018-Feb-16 17:56N 34°44' E 134°38'0 0.0
2018-Feb-16 17:26N 34°44' E 134°38'0 0.0
2018-Feb-16 16:56N 34°44' E 134°38'0 0.0
2018-Feb-16 16:17N 34°44' E 134°38'0 0.0
2018-Feb-16 15:56N 34°44' E 134°38'0 0.0
2018-Feb-16 15:26N 34°44' E 134°38'0 0.0
2018-Feb-16 14:56N 34°44' E 134°38'0 0.0
2018-Feb-16 14:26N 34°44' E 134°38'0 0.1
2018-Feb-16 13:56N 34°44' E 134°38'0 0.0
2018-Feb-16 13:26N 34°44' E 134°38'0 0.0
2018-Feb-16 12:56N 34°44' E 134°38'0 0.0
2018-Feb-16 12:26N 34°44' E 134°38'0 0.0
2018-Feb-16 11:56N 34°44' E 134°38'0 0.0
2018-Feb-16 11:26N 34°44' E 134°38'0 0.1
2018-Feb-16 10:56N 34°44' E 134°38'0 0.1
2018-Feb-16 10:23N 34°44' E 134°38'0 0.0
2018-Feb-16 09:56N 34°44' E 134°38'0 0.1
2018-Feb-16 09:26N 34°44' E 134°38'0 0.1
2018-Feb-16 08:59N 34°44' E 134°38'0 0.1
2018-Feb-16 08:30N 34°44' E 134°38'5 9.5
2018-Feb-16 08:00N 34°42' E 134°44'611.9
2018-Feb-16 07:30N 34°39' E 134°50'510.9
2018-Feb-16 07:01N 34°37' E 134°56'5 9.9
2018-Feb-16 06:30N 34°37' E 135°02'510.4
2018-Feb-16 06:00N 34°36' E 135°08'612.5
2018-Feb-16 05:30N 34°37' E 135°16'3 6.2
2018-Feb-16 04:58N 34°40' E 135°17'0 0.0
2018-Feb-16 04:28N 34°40' E 135°17'0 0.1
2018-Feb-16 03:55N 34°40' E 135°17'0 0.1
2018-Feb-16 03:29N 34°40' E 135°17'0 0.3
2018-Feb-16 03:00N 34°40' E 135°17'2 4.6
2018-Feb-16 02:31N 34°41' E 135°15'2 3.2
2018-Feb-16 02:00N 34°42' E 135°15'0 0.0
2018-Feb-16 01:30N 34°42' E 135°15'0 0.0
2018-Feb-16 01:00N 34°42' E 135°15'0 0.0
2018-Feb-16 00:30N 34°42' E 135°15'0 0.0
2018-Feb-16 00:00N 34°42' E 135°15'0 0.0
2018-Feb-15 23:30N 34°42' E 135°15'0 0.0
2018-Feb-15 23:00N 34°42' E 135°15'1 2.1
2018-Feb-15 22:30N 34°41' E 135°15'4 8.7
2018-Feb-15 22:01N 34°37' E 135°17'0 0.1
2018-Feb-15 21:29N 34°37' E 135°17'0 0.8
2018-Feb-15 21:01N 34°37' E 135°16'611.6
2018-Feb-15 20:30N 34°36' E 135°09'611.5
2018-Feb-15 20:00N 34°36' E 135°02'611.9
2018-Feb-15 19:30N 34°36' E 134°55'713.2
2018-Feb-15 19:00N 34°33' E 134°48'612.5
2018-Feb-15 18:30N 34°31' E 134°41'612.1
2018-Feb-15 18:01N 34°28' E 134°34'611.9
2018-Feb-15 17:29N 34°26' E 134°27'611.8
2018-Feb-15 16:56N 34°24' E 134°20'8111.9
2018-Feb-15 10:08N 34°01' E 132°46'213.4
2018-Feb-15 10:00N 33°60' E 132°45'612.2
2018-Feb-15 09:30N 33°55' E 132°40'1612.2
2018-Feb-15 08:10N 33°50' E 132°21'211.9
2018-Feb-15 08:00N 33°50' E 132°19'1311.7
2018-Feb-15 06:54N 33°46' E 132°04'410.2
2018-Feb-15 06:29N 33°48' E 131°59'612.1
2018-Feb-15 06:01N 33°52' E 131°54'612.3
2018-Feb-15 05:31N 33°55' E 131°48'5 9.7
2018-Feb-15 05:00N 33°60' E 131°46'3 0.7
2018-Feb-15 00:03N 34°02' E 131°48'0 2.6
2018-Feb-15 00:00N 34°02' E 131°48'0 0.3
2018-Feb-14 23:28N 34°02' E 131°48'0 0.1
2018-Feb-14 22:58N 34°02' E 131°48'0 0.0
2018-Feb-14 22:28N 34°02' E 131°48'0 0.0
2018-Feb-14 21:40N 34°02' E 131°48'0 0.2
2018-Feb-14 21:22N 34°02' E 131°48'0 0.1
2018-Feb-14 20:16N 34°02' E 131°48'0 0.1
2018-Feb-14 19:58N 34°02' E 131°48'0 0.1
2018-Feb-14 19:28N 34°02' E 131°48'0 0.0
2018-Feb-14 18:58N 34°02' E 131°48'0 0.0
2018-Feb-14 18:10N 34°02' E 131°48'0 0.0
2018-Feb-14 17:58N 34°02' E 131°48'0 0.0
2018-Feb-14 17:16N 34°02' E 131°48'0 0.0
2018-Feb-14 16:58N 34°02' E 131°48'0 0.1
2018-Feb-14 16:28N 34°02' E 131°48'0 0.0
2018-Feb-14 15:58N 34°02' E 131°48'0 0.0
2018-Feb-14 14:40N 34°02' E 131°48'0 0.0
2018-Feb-14 14:10N 34°02' E 131°48'0 0.0
2018-Feb-14 13:58N 34°02' E 131°48'0 0.0
2018-Feb-14 12:34N 34°02' E 131°48'0 0.3
2018-Feb-14 12:22N 34°02' E 131°48'0 0.0
2018-Feb-14 11:58N 34°02' E 131°48'0 0.4
2018-Feb-14 11:30N 34°02' E 131°48'5 9.5
2018-Feb-14 11:00N 33°58' E 131°45'912.6
2018-Feb-14 10:16N 33°52' E 131°54'412.6
2018-Feb-14 09:58N 33°50' E 131°57'612.4
2018-Feb-14 09:30N 33°46' E 132°03'1011.8
2018-Feb-14 08:40N 33°50' E 132°14'311.8
2018-Feb-14 08:23N 33°50' E 132°18'611.5
2018-Feb-14 07:52N 33°51' E 132°25'  
Track history (hours):
 
Tides and Currents Weather Stations Pressure Air Temp Water Temp Dewpoint Dewpoint Depression Visibility Wind Speed Wind Dir Waves Ship Positions

Yuho Maru No.8

Last reported at 2018-Feb-24 07:30 UTC. Time now 2018-Feb-24 07:49 UTC.
Position N 35°23' E 139°42'.

Length 61 m; draft 4.4 m.

Type: Ship. MMSI: 431006905.

Date/timePositionNaut miles runAvg speedWind from/ knotsBaromVisibWave heightAir tempDewpointWater temp
2018-Feb-24 07:30N 35°23' E 139°42'611.2
2018-Feb-24 07:01N 35°27' E 139°47'611.0
2018-Feb-24 06:30N 35°30' E 139°53'2 4.5
2018-Feb-24 06:00N 35°29' E 139°56'2 3.8
2018-Feb-24 05:30N 35°30' E 139°58'3 6.6
2018-Feb-24 05:00N 35°30' E 140°02'0 0.0
2018-Feb-24 04:28N 35°30' E 140°02'0 0.0
2018-Feb-24 00:23N 35°30' E 140°02'2 1.7
2018-Feb-23 23:29N 35°31' E 140°00'4 8.8
2018-Feb-23 23:01N 35°35' E 139°60'610.5
2018-Feb-23 22:27N 35°41' E 139°59'0 0.0
2018-Feb-22 23:37N 35°41' E 139°59'0 0.1
2018-Feb-22 23:30N 35°41' E 139°59'1 1.1
2018-Feb-22 22:47N 35°40' E 139°59'310.2
2018-Feb-22 22:30N 35°37' E 139°59'4 7.4
2018-Feb-22 22:00N 35°36' E 139°55'0 0.0
2018-Feb-22 21:28N 35°36' E 139°55'0 0.0
2018-Feb-22 20:40N 35°36' E 139°55'0 0.0
2018-Feb-22 20:19N 35°36' E 139°55'0 0.0
2018-Feb-22 19:52N 35°36' E 139°55'0 0.0
2018-Feb-22 19:22N 35°36' E 139°55'0 0.0
2018-Feb-22 18:52N 35°36' E 139°55'0 0.0
2018-Feb-22 18:28N 35°36' E 139°55'0 0.0
2018-Feb-22 17:40N 35°36' E 139°55'0 0.0
2018-Feb-22 17:10N 35°36' E 139°55'0 0.0
2018-Feb-22 15:10N 35°36' E 139°55'0 0.0
2018-Feb-22 14:58N 35°36' E 139°55'0 0.0
2018-Feb-22 14:28N 35°36' E 139°55'0 0.0
2018-Feb-22 13:58N 35°36' E 139°55'0 0.0
2018-Feb-22 12:52N 35°36' E 139°55'0 0.0
2018-Feb-22 12:28N 35°36' E 139°55'0 0.0
2018-Feb-22 11:58N 35°36' E 139°55'0 0.0
2018-Feb-22 10:52N 35°36' E 139°55'0 0.0
2018-Feb-22 09:10N 35°36' E 139°55'0 0.2
2018-Feb-22 08:58N 35°36' E 139°55'0 0.1
2018-Feb-22 08:13N 35°36' E 139°55'2 7.1
2018-Feb-22 08:00N 35°35' E 139°56'612.3
2018-Feb-22 07:30N 35°32' E 140°03'1 0.2
2018-Feb-22 03:38N 35°32' E 140°04'0 0.1
2018-Feb-22 03:30N 35°32' E 140°04'3 6.5
2018-Feb-22 03:00N 35°34' E 140°01'612.1
2018-Feb-22 02:31N 35°40' E 139°58'1 0.5
2018-Feb-21 23:53N 35°40' E 139°56'2 4.3
2018-Feb-21 23:30N 35°39' E 139°58'4 8.7
2018-Feb-21 22:59N 35°36' E 139°55'0 0.3
2018-Feb-21 22:24N 35°36' E 139°54'0 0.0
2018-Feb-21 21:54N 35°36' E 139°54'0 0.0
2018-Feb-21 21:30N 35°36' E 139°54'1 1.6
2018-Feb-21 20:58N 35°35' E 139°54'611.6
2018-Feb-21 20:29N 35°30' E 139°52'511.3
2018-Feb-21 20:01N 35°25' E 139°48'611.2
2018-Feb-21 19:30N 35°20' E 139°45'510.7
2018-Feb-21 19:00N 35°15' E 139°47'611.3
2018-Feb-21 18:30N 35°10' E 139°47'611.2
2018-Feb-21 18:00N 35°04' E 139°45'712.0
2018-Feb-21 17:26N 35°00' E 139°39'511.2
2018-Feb-21 17:00N 34°58' E 139°34'1111.2
2018-Feb-21 16:01N 34°51' E 139°23'211.3
2018-Feb-21 15:51N 34°50' E 139°21'411.6
2018-Feb-21 15:29N 34°48' E 139°17'612.0
2018-Feb-21 14:58N 34°44' E 139°11'511.0
2018-Feb-21 14:28N 34°40' E 139°06'611.2
2018-Feb-21 13:58N 34°37' E 138°60'711.5
2018-Feb-21 13:22N 34°35' E 138°52'511.7
2018-Feb-21 12:58N 34°34' E 138°47'612.0
2018-Feb-21 12:27N 34°32' E 138°39'612.0
2018-Feb-21 11:56N 34°31' E 138°32'1412.1
2018-Feb-21 10:48N 34°30' E 138°15'7511.4
2018-Feb-21 04:11N 34°47' E 136°46'212.1
2018-Feb-21 04:01N 34°49' E 136°45'612.1
2018-Feb-21 03:30N 34°55' E 136°42'5 1.3
2018-Feb-20 23:56N 34°59' E 136°39'1 2.9
2018-Feb-20 23:30N 34°58' E 136°40'0 0.5
2018-Feb-20 22:58N 34°57' E 136°40'0 0.1
2018-Feb-20 22:28N 34°58' E 136°40'0 0.0
2018-Feb-20 21:55N 34°58' E 136°40'0 0.0
2018-Feb-20 21:28N 34°58' E 136°40'0 0.0
2018-Feb-20 20:58N 34°58' E 136°40'0 0.0
2018-Feb-20 20:28N 34°58' E 136°40'0 0.0
2018-Feb-20 19:55N 34°58' E 136°40'0 0.0
2018-Feb-20 19:28N 34°58' E 136°40'0 0.0
2018-Feb-20 18:58N 34°58' E 136°40'0 0.0
2018-Feb-20 18:22N 34°58' E 136°40'0 0.0
2018-Feb-20 17:55N 34°58' E 136°40'0 0.0
2018-Feb-20 17:28N 34°58' E 136°40'0 0.0
2018-Feb-20 16:55N 34°58' E 136°40'0 0.0
2018-Feb-20 16:28N 34°58' E 136°40'0 0.0
2018-Feb-20 15:58N 34°57' E 136°40'0 0.0
2018-Feb-20 15:28N 34°57' E 136°40'0 0.0
2018-Feb-20 14:55N 34°57' E 136°40'0 0.1
2018-Feb-20 14:28N 34°57' E 136°40'0 0.0
2018-Feb-20 13:55N 34°57' E 136°40'0 0.0
2018-Feb-20 13:19N 34°57' E 136°40'0 0.0
2018-Feb-20 12:58N 34°57' E 136°40'1 2.8
2018-Feb-20 12:30N 34°56' E 136°41'611.5
2018-Feb-20 12:01N 34°51' E 136°43'611.3
2018-Feb-20 11:30N 34°46' E 136°47'102 7.3
2018-Feb-19 21:36N 33°53' E 135°01'111.6
2018-Feb-19 21:31N 33°54' E 135°00'611.7
2018-Feb-19 21:01N 33°58' E 134°56'611.7
2018-Feb-19 20:30N 34°03' E 134°51'612.0
2018-Feb-19 20:00N 34°07' E 134°47'612.5
2018-Feb-19 19:30N 34°12' E 134°41'612.6
2018-Feb-19 19:00N 34°16' E 134°36'612.3
2018-Feb-19 18:30N 34°19' E 134°29'612.2
2018-Feb-19 18:00N 34°21' E 134°22'7910.9
2018-Feb-19 10:45N 34°04' E 132°49'511.8
2018-Feb-19 10:20N 34°00' E 132°45'411.3
2018-Feb-19 10:00N 33°57' E 132°43'510.7
2018-Feb-19 09:30N 33°54' E 132°38'611.2
2018-Feb-19 09:00N 33°50' E 132°33'610.9
2018-Feb-19 08:24N 33°46' E 132°27'410.9
2018-Feb-19 08:00N 33°43' E 132°23'510.7
2018-Feb-19 07:30N 33°40' E 132°18'1110.8
2018-Feb-19 06:30N 33°33' E 132°07'610.5
2018-Feb-19 05:55N 33°30' E 132°02'610.5
2018-Feb-19 05:19N 33°26' E 131°55'311.1
2018-Feb-19 05:00N 33°24' E 131°52'611.9
2018-Feb-19 04:30N 33°21' E 131°46'612.0
2018-Feb-19 03:59N 33°17' E 131°40'1 0.1
2018-Feb-18 03:52N 33°16' E 131°40'1 1.7
2018-Feb-18 03:30N 33°16' E 131°40'1 2.5
2018-Feb-18 03:00N 33°18' E 131°40'2 0.5
2018-Feb-17 23:35N 33°16' E 131°41'0 0.8
2018-Feb-17 23:31N 33°16' E 131°41'4 8.3
2018-Feb-17 23:00N 33°20' E 131°44'611.5
2018-Feb-17 22:30N 33°23' E 131°49'611.0
2018-Feb-17 22:00N 33°26' E 131°55'510.5
2018-Feb-17 21:30N 33°29' E 131°60'2011.5
2018-Feb-17 19:47N 33°41' E 132°19'412.5
2018-Feb-17 19:28N 33°43' E 132°22'813.0
2018-Feb-17 18:51N 33°49' E 132°30'513.1
2018-Feb-17 18:29N 33°52' E 132°34'613.5
2018-Feb-17 18:00N 33°56' E 132°40'10311.1
2018-Feb-17 08:42N 34°43' E 134°32'210.5
2018-Feb-17 08:30N 34°43' E 134°34'5 9.6
2018-Feb-17 08:00N 34°47' E 134°38'1 0.1
2018-Feb-16 23:04N 34°47' E 134°38'0 0.1
2018-Feb-16 23:00N 34°47' E 134°38'0 0.1
2018-Feb-16 22:30N 34°47' E 134°38'3 6.3
2018-Feb-16 22:00N 34°44' E 134°38'0 0.4
2018-Feb-16 21:26N 34°44' E 134°38'0 0.0
2018-Feb-16 20:56N 34°44' E 134°38'0 0.0
2018-Feb-16 20:26N 34°44' E 134°38'0 0.0
2018-Feb-16 19:56N 34°44' E 134°38'0 0.0
2018-Feb-16 19:26N 34°44' E 134°38'0 0.0
2018-Feb-16 18:56N 34°44' E 134°38'0 0.0
2018-Feb-16 18:26N 34°44' E 134°38'0 0.0
2018-Feb-16 17:56N 34°44' E 134°38'0 0.0
2018-Feb-16 17:26N 34°44' E 134°38'0 0.0
2018-Feb-16 16:56N 34°44' E 134°38'0 0.0
2018-Feb-16 16:17N 34°44' E 134°38'0 0.0
2018-Feb-16 15:56N 34°44' E 134°38'0 0.0
2018-Feb-16 15:26N 34°44' E 134°38'0 0.0
2018-Feb-16 14:56N 34°44' E 134°38'0 0.0
2018-Feb-16 14:26N 34°44' E 134°38'0 0.1
2018-Feb-16 13:56N 34°44' E 134°38'0 0.0
2018-Feb-16 13:26N 34°44' E 134°38'0 0.0
2018-Feb-16 12:56N 34°44' E 134°38'0 0.0
2018-Feb-16 12:26N 34°44' E 134°38'0 0.0
2018-Feb-16 11:56N 34°44' E 134°38'0 0.0
2018-Feb-16 11:26N 34°44' E 134°38'0 0.1
2018-Feb-16 10:56N 34°44' E 134°38'0 0.1
2018-Feb-16 10:23N 34°44' E 134°38'0 0.0
2018-Feb-16 09:56N 34°44' E 134°38'0 0.1
2018-Feb-16 09:26N 34°44' E 134°38'0 0.1
2018-Feb-16 08:59N 34°44' E 134°38'0 0.1
2018-Feb-16 08:30N 34°44' E 134°38'5 9.5
2018-Feb-16 08:00N 34°42' E 134°44'611.9
2018-Feb-16 07:30N 34°39' E 134°50'510.9
2018-Feb-16 07:01N 34°37' E 134°56'5 9.9
2018-Feb-16 06:30N 34°37' E 135°02'510.4
2018-Feb-16 06:00N 34°36' E 135°08'612.5
2018-Feb-16 05:30N 34°37' E 135°16'3 6.2
2018-Feb-16 04:58N 34°40' E 135°17'0 0.0
2018-Feb-16 04:28N 34°40' E 135°17'0 0.1
2018-Feb-16 03:55N 34°40' E 135°17'0 0.1
2018-Feb-16 03:29N 34°40' E 135°17'0 0.3
2018-Feb-16 03:00N 34°40' E 135°17'2 4.6
2018-Feb-16 02:31N 34°41' E 135°15'2 3.2
2018-Feb-16 02:00N 34°42' E 135°15'0 0.0
2018-Feb-16 01:30N 34°42' E 135°15'0 0.0
2018-Feb-16 01:00N 34°42' E 135°15'0 0.0
2018-Feb-16 00:30N 34°42' E 135°15'0 0.0
2018-Feb-16 00:00N 34°42' E 135°15'0 0.0
2018-Feb-15 23:30N 34°42' E 135°15'0 0.0
2018-Feb-15 23:00N 34°42' E 135°15'1 2.1
2018-Feb-15 22:30N 34°41' E 135°15'4 8.7
2018-Feb-15 22:01N 34°37' E 135°17'0 0.1
2018-Feb-15 21:29N 34°37' E 135°17'0 0.8
2018-Feb-15 21:01N 34°37' E 135°16'611.6
2018-Feb-15 20:30N 34°36' E 135°09'611.5
2018-Feb-15 20:00N 34°36' E 135°02'611.9
2018-Feb-15 19:30N 34°36' E 134°55'713.2
2018-Feb-15 19:00N 34°33' E 134°48'612.5
2018-Feb-15 18:30N 34°31' E 134°41'612.1
2018-Feb-15 18:01N 34°28' E 134°34'611.9
2018-Feb-15 17:29N 34°26' E 134°27'611.8
2018-Feb-15 16:56N 34°24' E 134°20'8111.9
2018-Feb-15 10:08N 34°01' E 132°46'213.4
2018-Feb-15 10:00N 33°60' E 132°45'612.2
2018-Feb-15 09:30N 33°55' E 132°40'1612.2
2018-Feb-15 08:10N 33°50' E 132°21'211.9
2018-Feb-15 08:00N 33°50' E 132°19'1311.7
2018-Feb-15 06:54N 33°46' E 132°04'410.2
2018-Feb-15 06:29N 33°48' E 131°59'612.1
2018-Feb-15 06:01N 33°52' E 131°54'612.3
2018-Feb-15 05:31N 33°55' E 131°48'5 9.7
2018-Feb-15 05:00N 33°60' E 131°46'3 0.7
2018-Feb-15 00:03N 34°02' E 131°48'0 2.6
2018-Feb-15 00:00N 34°02' E 131°48'0 0.3
2018-Feb-14 23:28N 34°02' E 131°48'0 0.1
2018-Feb-14 22:58N 34°02' E 131°48'0 0.0
2018-Feb-14 22:28N 34°02' E 131°48'0 0.0
2018-Feb-14 21:40N 34°02' E 131°48'0 0.2
2018-Feb-14 21:22N 34°02' E 131°48'0 0.1
2018-Feb-14 20:16N 34°02' E 131°48'0 0.1
2018-Feb-14 19:58N 34°02' E 131°48'0 0.1
2018-Feb-14 19:28N 34°02' E 131°48'0 0.0
2018-Feb-14 18:58N 34°02' E 131°48'0 0.0
2018-Feb-14 18:10N 34°02' E 131°48'0 0.0
2018-Feb-14 17:58N 34°02' E 131°48'0 0.0
2018-Feb-14 17:16N 34°02' E 131°48'0 0.0
2018-Feb-14 16:58N 34°02' E 131°48'0 0.1
2018-Feb-14 16:28N 34°02' E 131°48'0 0.0
2018-Feb-14 15:58N 34°02' E 131°48'0 0.0
2018-Feb-14 14:40N 34°02' E 131°48'0 0.0
2018-Feb-14 14:10N 34°02' E 131°48'0 0.0
2018-Feb-14 13:58N 34°02' E 131°48'0 0.0
2018-Feb-14 12:34N 34°02' E 131°48'0 0.3
2018-Feb-14 12:22N 34°02' E 131°48'0 0.0
2018-Feb-14 11:58N 34°02' E 131°48'0 0.4
2018-Feb-14 11:30N 34°02' E 131°48'5 9.5
2018-Feb-14 11:00N 33°58' E 131°45'912.6
2018-Feb-14 10:16N 33°52' E 131°54'412.6
2018-Feb-14 09:58N 33°50' E 131°57'612.4
2018-Feb-14 09:30N 33°46' E 132°03'1011.8
2018-Feb-14 08:40N 33°50' E 132°14'311.8
2018-Feb-14 08:23N 33°50' E 132°18'611.5
2018-Feb-14 07:52N 33°51' E 132°25'  

Dump ship's entire track history